createdAt,value
2022-12-01T05:03:15.276Z,5.93
2022-12-01T05:07:18.439Z,5.97
2022-12-01T05:11:21.379Z,6.01
2022-12-01T05:15:24.249Z,5.95
2022-12-01T05:19:46.176Z,5.88
2022-12-01T05:23:49.039Z,5.84
2022-12-01T05:27:51.747Z,5.86
2022-12-01T05:31:54.621Z,5.86
2022-12-01T05:35:58.973Z,5.81
2022-12-01T05:40:01.971Z,5.81
2022-12-01T05:44:04.959Z,5.83
2022-12-01T05:52:52.028Z,5.77
2022-12-01T05:56:54.795Z,5.82
2022-12-01T06:00:57.574Z,5.79
2022-12-01T06:05:00.353Z,5.81
2022-12-01T06:09:04.940Z,5.87
2022-12-01T06:13:07.767Z,5.71
2022-12-01T06:17:10.658Z,5.76
2022-12-01T06:21:13.453Z,5.59
2022-12-01T06:25:17.787Z,5.57
2022-12-01T06:29:20.645Z,5.49
2022-12-01T06:33:23.405Z,5.39
2022-12-01T06:37:26.266Z,5.48
2022-12-01T06:41:30.396Z,5.41
2022-12-01T06:45:33.360Z,5.35
2022-12-01T06:49:36.234Z,5.22
2022-12-01T06:53:39.031Z,5.12
2022-12-01T06:57:44.023Z,5.10
2022-12-01T07:01:47.449Z,5.01
2022-12-01T07:05:58.465Z,5.10
2022-12-01T07:10:01.269Z,5.15
2022-12-01T07:14:05.448Z,5.03
2022-12-01T07:18:08.178Z,5.15
2022-12-01T07:22:11.333Z,5.08
2022-12-01T07:26:16.275Z,5.13
2022-12-01T07:30:25.419Z,5.08
2022-12-01T07:34:30.957Z,5.10
2022-12-01T07:38:35.051Z,5.02
2022-12-01T07:42:37.848Z,5.03
2022-12-01T07:46:42.063Z,5.01
2022-12-01T07:50:44.943Z,5.19
2022-12-01T07:54:47.767Z,5.08
2022-12-01T07:58:50.554Z,4.94
2022-12-01T08:02:54.807Z,5.05
2022-12-01T08:06:57.680Z,5.07
2022-12-01T13:30:27.311Z,4.82
2022-12-01T13:34:36.780Z,4.86
2022-12-01T13:38:40.427Z,4.78
2022-12-01T13:42:44.039Z,4.62
2022-12-01T13:46:59.807Z,4.67
2022-12-01T13:51:02.921Z,4.69
2022-12-01T13:55:30.019Z,4.69
2022-12-01T14:00:00.353Z,4.56
2022-12-01T14:04:25.037Z,4.57
2022-12-01T14:08:30.551Z,4.37
2022-12-01T14:12:37.688Z,4.46
2022-12-01T14:16:48.651Z,4.55
2022-12-01T14:20:53.132Z,4.45
2022-12-01T14:24:57.474Z,4.42
2022-12-01T14:29:28.424Z,4.74
2022-12-01T14:33:52.066Z,4.65
2022-12-01T14:37:58.684Z,4.42
2022-12-01T14:42:03.958Z,4.40
2022-12-01T14:46:09.581Z,4.38
2022-12-01T14:50:17.579Z,4.20
2022-12-01T14:54:27.562Z,4.22
2022-12-01T14:58:32.525Z,4.13
2022-12-01T15:02:40.188Z,4.02
2022-12-01T15:06:44.869Z,3.96
2022-12-01T15:10:53.230Z,3.85
2022-12-01T15:14:55.848Z,3.55
2022-12-01T15:18:58.830Z,3.46
2022-12-01T15:23:03.310Z,3.48
2022-12-01T15:27:25.438Z,3.60
2022-12-01T15:31:28.137Z,3.61
2022-12-01T15:35:30.955Z,3.61
2022-12-01T15:39:36.029Z,3.64
2022-12-01T15:43:41.230Z,3.57
2022-12-01T15:47:47.116Z,3.44
2022-12-01T15:51:51.390Z,3.39
2022-12-01T15:55:59.022Z,3.27
2022-12-01T16:00:04.507Z,3.13
2022-12-01T16:04:19.319Z,2.99
2022-12-01T16:08:24.776Z,2.94
2022-12-01T16:12:28.677Z,2.87
2022-12-01T16:16:44.716Z,2.91
2022-12-01T16:20:47.418Z,2.98
2022-12-01T16:24:53.080Z,2.98
2022-12-01T16:28:56.661Z,3.01
2022-12-01T16:33:06.309Z,3.05
2022-12-01T16:37:11.760Z,3.06
2022-12-01T16:41:25.633Z,3.04
2022-12-01T16:45:28.352Z,3.04
2022-12-01T16:49:33.067Z,2.99
2022-12-01T16:53:35.715Z,2.97
2022-12-01T16:57:38.321Z,3.06
2022-12-01T17:01:40.955Z,3.14
2022-12-01T17:05:44.985Z,3.15
2022-12-01T17:09:47.671Z,3.12
2022-12-01T17:13:50.307Z,3.13
2022-12-01T17:17:53.005Z,3.14
2022-12-01T17:21:56.973Z,3.21
2022-12-01T17:26:00.448Z,3.18
2022-12-01T17:30:03.173Z,3.27
2022-12-01T17:34:05.813Z,3.31
2022-12-01T17:38:10.063Z,3.38
2022-12-01T17:42:12.778Z,3.28
2022-12-01T17:46:15.851Z,3.36
2022-12-01T17:50:18.728Z,3.29
2022-12-01T17:54:23.437Z,3.31
2022-12-01T17:58:26.185Z,3.29
2022-12-01T18:02:29.168Z,3.34
2022-12-01T18:06:32.214Z,3.40
2022-12-01T18:10:36.538Z,3.48
2022-12-01T18:14:40.675Z,3.40
2022-12-01T18:18:43.952Z,3.44
2022-12-01T18:22:47.380Z,3.42
2022-12-01T18:26:51.334Z,3.49
2022-12-01T18:30:54.014Z,3.50
2022-12-01T18:34:56.750Z,3.54
2022-12-01T18:39:01.218Z,3.58
2022-12-01T18:43:05.805Z,3.56
2022-12-01T18:47:10.967Z,3.51
2022-12-01T18:51:13.830Z,3.51
2022-12-01T18:55:16.507Z,3.56
2022-12-01T18:59:20.585Z,3.60
2022-12-01T19:03:23.234Z,3.60
2022-12-01T19:07:29.738Z,3.62
2022-12-01T19:11:34.122Z,3.66
2022-12-01T19:15:38.538Z,3.68
2022-12-01T19:19:41.201Z,3.63
2022-12-01T19:23:44.574Z,3.59
2022-12-01T19:27:47.626Z,3.62
2022-12-01T19:31:51.986Z,3.62
2022-12-01T19:35:54.706Z,3.75
2022-12-01T19:39:57.353Z,3.76
2022-12-01T19:43:59.995Z,3.71
2022-12-01T19:48:04.017Z,3.74
2022-12-01T19:52:06.837Z,3.68
2022-12-01T19:56:10.594Z,3.64
2022-12-01T20:00:14.200Z,3.67
2022-12-01T20:04:18.286Z,3.59
2022-12-01T20:08:20.978Z,3.55
2022-12-01T20:12:23.678Z,3.51
2022-12-01T20:16:28.763Z,3.51
2022-12-01T20:20:32.763Z,3.59
2022-12-01T20:24:36.623Z,3.58
2022-12-01T20:28:40.466Z,3.61
2022-12-01T20:32:43.091Z,3.67
2022-12-01T20:36:48.771Z,3.69
2022-12-01T20:40:52.647Z,3.64
2022-12-01T20:44:55.349Z,3.65
2022-12-01T20:48:58.057Z,3.61
2022-12-01T20:53:02.061Z,3.56
2022-12-01T20:57:04.727Z,3.46
2022-12-01T21:01:09.747Z,3.53
2022-12-01T21:05:12.648Z,3.48
2022-12-01T21:09:16.679Z,3.51
2022-12-01T21:13:42.096Z,3.59
2022-12-01T21:17:50.922Z,3.64
2022-12-01T21:21:53.704Z,3.64
2022-12-01T21:25:58.191Z,3.60
2022-12-01T21:30:01.535Z,3.61
2022-12-01T21:34:11.074Z,3.60
2022-12-01T21:38:20.459Z,3.59
2022-12-01T21:42:27.908Z,3.56
2022-12-01T21:46:30.809Z,3.59
2022-12-01T21:50:33.680Z,3.61
2022-12-01T21:54:36.376Z,3.59
2022-12-01T21:58:40.383Z,3.63
